Ginga — JJ4054 — position and weather

sailwx.info

Track history (hours):
 
Tides and Currents Weather Stations Pressure Air Temp Water Temp Dewpoint Dewpoint Depression Visibility Wind Speed Wind Dir Waves Ship Positions

Ginga

Last reported at 2015-Apr-02 08:07 UTC. Time now 2015-Apr-02 09:46 UTC.
Position N 34°39' E 135°09'.

Length 28 m; draft 1.6 m.

Type: Other ship. MMSI: 431301704.

Date/timePositionNaut miles runAvg speedWind from/ knotsBaromVisibWave heightAir tempDewpointWater temp
2015-Apr-02 08:07N 34°39' E 135°09'610.5
2015-Apr-02 07:33N 34°35' E 135°04'4 3.8
2015-Apr-02 06:33N 34°37' E 134°60'8 8.2
2015-Apr-02 05:33N 34°39' E 135°09'0 0.0
2015-Apr-01 20:33N 34°39' E 135°10'9 9.2
2015-Apr-01 19:33N 34°37' E 134°59'8 8.0
2015-Apr-01 18:33N 34°36' E 135°08'4 3.7
2015-Apr-01 17:33N 34°39' E 135°09'5 0.1
2015-Mar-31 04:33N 34°37' E 135°05'5 4.9
2015-Mar-31 03:33N 34°38' E 134°59'8 8.1
2015-Mar-31 02:33N 34°35' E 135°08'5 4.8
2015-Mar-31 01:33N 34°38' E 135°03'0 0.0
2015-Mar-30 20:20N 34°38' E 135°03'1 1.7
2015-Mar-30 19:34N 34°37' E 135°02'6 6.2
2015-Mar-30 18:33N 34°35' E 135°09'4 4.0
2015-Mar-30 17:34N 34°39' E 135°09'2 0.2
2015-Mar-30 06:33N 34°37' E 135°10'15 7.2
2015-Mar-30 04:32N 34°24' E 135°02'1414.2
2015-Mar-30 03:33N 34°32' E 135°16'7 6.9
2015-Mar-30 02:33N 34°34' E 135°24'5 5.1
2015-Mar-30 01:33N 34°36' E 135°18'8 0.3
2015-Mar-29 03:06N 34°39' E 135°09'5 8.6
2015-Mar-29 02:33N 34°37' E 135°15'8 8.4
2015-Mar-29 01:33N 34°33' E 135°24'6 6.3
2015-Mar-29 00:33N 34°33' E 135°16'1211.8
2015-Mar-28 23:32N 34°24' E 135°06'15 9.8
2015-Mar-28 22:04N 34°10' E 134°60'19 1.4
2015-Mar-28 08:33N 34°29' E 135°04'6 6.3
2015-Mar-28 07:33N 34°35' E 135°04'15 1.4
2015-Mar-27 21:10N 34°41' E 134°47'914.8
2015-Mar-27 20:33N 34°37' E 134°57'8 8.5
2015-Mar-27 19:34N 34°35' E 135°07'5 4.8
2015-Mar-27 18:33N 34°39' E 135°09'0 0.0
2015-Mar-27 08:33N 34°39' E 135°09'0 0.2
2015-Mar-27 07:33N 34°39' E 135°10'10 2.2
2015-Mar-27 03:06N 34°37' E 134°58'611.2
2015-Mar-27 02:33N 34°35' E 135°05'5 5.4
2015-Mar-27 01:33N 34°30' E 135°06'1612.3
2015-Mar-27 00:13N 34°14' E 134°59'4 5.7
2015-Mar-26 23:28N 34°10' E 135°00'1312.1
2015-Mar-26 22:26N 34°23' E 135°00'1515.5
2015-Mar-26 21:29N 34°37' E 135°03'0 0.1
2015-Mar-26 17:29N 34°38' E 135°03'1 1.5
2015-Mar-26 16:33N 34°36' E 135°03'6 6.0
2015-Mar-26 15:34N 34°39' E 135°09'1 0.0
2015-Mar-24 21:33N 34°38' E 135°09'7 5.0
2015-Mar-24 20:11N 34°37' E 135°01'5 7.5
2015-Mar-24 19:33N 34°35' E 135°06'5 5.0
2015-Mar-24 18:33N 34°39' E 135°09'  
Track history (hours):
 
Tides and Currents Weather Stations Pressure Air Temp Water Temp Dewpoint Dewpoint Depression Visibility Wind Speed Wind Dir Waves Ship Positions

Ginga

Last reported at 2015-Apr-02 08:07 UTC. Time now 2015-Apr-02 09:46 UTC.
Position N 34°39' E 135°09'.

Length 28 m; draft 1.6 m.

Type: Other ship. MMSI: 431301704.

Date/timePositionNaut miles runAvg speedWind from/ knotsBaromVisibWave heightAir tempDewpointWater temp
2015-Apr-02 08:07N 34°39' E 135°09'610.5
2015-Apr-02 07:33N 34°35' E 135°04'4 3.8
2015-Apr-02 06:33N 34°37' E 134°60'8 8.2
2015-Apr-02 05:33N 34°39' E 135°09'0 0.0
2015-Apr-01 20:33N 34°39' E 135°10'9 9.2
2015-Apr-01 19:33N 34°37' E 134°59'8 8.0
2015-Apr-01 18:33N 34°36' E 135°08'4 3.7
2015-Apr-01 17:33N 34°39' E 135°09'5 0.1
2015-Mar-31 04:33N 34°37' E 135°05'5 4.9
2015-Mar-31 03:33N 34°38' E 134°59'8 8.1
2015-Mar-31 02:33N 34°35' E 135°08'5 4.8
2015-Mar-31 01:33N 34°38' E 135°03'0 0.0
2015-Mar-30 20:20N 34°38' E 135°03'1 1.7
2015-Mar-30 19:34N 34°37' E 135°02'6 6.2
2015-Mar-30 18:33N 34°35' E 135°09'4 4.0
2015-Mar-30 17:34N 34°39' E 135°09'2 0.2
2015-Mar-30 06:33N 34°37' E 135°10'15 7.2
2015-Mar-30 04:32N 34°24' E 135°02'1414.2
2015-Mar-30 03:33N 34°32' E 135°16'7 6.9
2015-Mar-30 02:33N 34°34' E 135°24'5 5.1
2015-Mar-30 01:33N 34°36' E 135°18'8 0.3
2015-Mar-29 03:06N 34°39' E 135°09'5 8.6
2015-Mar-29 02:33N 34°37' E 135°15'8 8.4
2015-Mar-29 01:33N 34°33' E 135°24'6 6.3
2015-Mar-29 00:33N 34°33' E 135°16'1211.8
2015-Mar-28 23:32N 34°24' E 135°06'15 9.8
2015-Mar-28 22:04N 34°10' E 134°60'19 1.4
2015-Mar-28 08:33N 34°29' E 135°04'6 6.3
2015-Mar-28 07:33N 34°35' E 135°04'15 1.4
2015-Mar-27 21:10N 34°41' E 134°47'914.8
2015-Mar-27 20:33N 34°37' E 134°57'8 8.5
2015-Mar-27 19:34N 34°35' E 135°07'5 4.8
2015-Mar-27 18:33N 34°39' E 135°09'0 0.0
2015-Mar-27 08:33N 34°39' E 135°09'0 0.2
2015-Mar-27 07:33N 34°39' E 135°10'10 2.2
2015-Mar-27 03:06N 34°37' E 134°58'611.2
2015-Mar-27 02:33N 34°35' E 135°05'5 5.4
2015-Mar-27 01:33N 34°30' E 135°06'1612.3
2015-Mar-27 00:13N 34°14' E 134°59'4 5.7
2015-Mar-26 23:28N 34°10' E 135°00'1312.1
2015-Mar-26 22:26N 34°23' E 135°00'1515.5
2015-Mar-26 21:29N 34°37' E 135°03'0 0.1
2015-Mar-26 17:29N 34°38' E 135°03'1 1.5
2015-Mar-26 16:33N 34°36' E 135°03'6 6.0
2015-Mar-26 15:34N 34°39' E 135°09'1 0.0
2015-Mar-24 21:33N 34°38' E 135°09'7 5.0
2015-Mar-24 20:11N 34°37' E 135°01'5 7.5
2015-Mar-24 19:33N 34°35' E 135°06'5 5.0
2015-Mar-24 18:33N 34°39' E 135°09'  

Dump ship's entire track history